Terminal Aerodrome Forecast
Issued by NWS Sterling, VA

Current Version | Previous Version | Text Only | Print | Product List | Glossary On
Versions: 1 2 3 4 5 6 7 8 9 10 11 12 13 14 15
974
FTUS41 KLWX 230550
TAFMRB
TAF
KMRB 230550Z 2306/2406 15003KT 6SM BR FEW100
     FM231300 25005KT P6SM BKN090
     FM232100 24007KT P6SM -SHRA VCTS BKN040CB
     FM240500 VRB03KT P6SM -SHRA BKN090=

USA.gov is the U.S. government's official web portal to all federal, state and local government web resources and services.